sensor_id;sensor_type;location;lat;lon;timestamp;P1;durP1;ratioP1;P2;durP2;ratioP2
37221;SDS011;23119;51.842;-2.230;2023-07-08T00:01:17;6.85;;;1.92;;
37221;SDS011;23119;51.842;-2.230;2023-07-08T00:03:45;6.97;;;2.17;;
37221;SDS011;23119;51.842;-2.230;2023-07-08T00:06:13;5.68;;;1.95;;
37221;SDS011;23119;51.842;-2.230;2023-07-08T00:08:46;3.50;;;1.17;;
37221;SDS011;23119;51.842;-2.230;2023-07-08T00:11:12;3.70;;;1.83;;
37221;SDS011;23119;51.842;-2.230;2023-07-08T00:13:39;5.20;;;2.72;;
37221;SDS011;23119;51.842;-2.230;2023-07-08T00:16:07;7.57;;;2.42;;
37221;SDS011;23119;51.842;-2.230;2023-07-08T00:18:38;3.00;;;1.45;;
37221;SDS011;23119;51.842;-2.230;2023-07-08T00:21:08;2.97;;;1.80;;
37221;SDS011;23119;51.842;-2.230;2023-07-08T00:23:35;6.10;;;2.63;;
37221;SDS011;23119;51.842;-2.230;2023-07-08T00:26:01;5.05;;;2.28;;
37221;SDS011;23119;51.842;-2.230;2023-07-08T00:28:27;5.40;;;2.53;;
37221;SDS011;23119;51.842;-2.230;2023-07-08T00:30:53;4.07;;;2.08;;
37221;SDS011;23119;51.842;-2.230;2023-07-08T00:33:19;3.10;;;1.48;;
37221;SDS011;23119;51.842;-2.230;2023-07-08T00:35:45;4.55;;;1.85;;
37221;SDS011;23119;51.842;-2.230;2023-07-08T00:38:22;4.70;;;1.63;;
37221;SDS011;23119;51.842;-2.230;2023-07-08T00:40:59;3.35;;;1.48;;
37221;SDS011;23119;51.842;-2.230;2023-07-08T00:43:38;4.38;;;1.92;;
37221;SDS011;23119;51.842;-2.230;2023-07-08T00:52:22;5.15;;;1.80;;
37221;SDS011;23119;51.842;-2.230;2023-07-08T00:54:58;4.97;;;1.60;;
37221;SDS011;23119;51.842;-2.230;2023-07-08T00:57:28;4.93;;;2.17;;
37221;SDS011;23119;51.842;-2.230;2023-07-08T00:59:58;6.60;;;2.05;;
37221;SDS011;23119;51.842;-2.230;2023-07-08T01:02:29;4.65;;;2.17;;
37221;SDS011;23119;51.842;-2.230;2023-07-08T01:05:06;5.20;;;2.13;;
37221;SDS011;23119;51.842;-2.230;2023-07-08T01:07:36;3.60;;;1.98;;
37221;SDS011;23119;51.842;-2.230;2023-07-08T01:10:08;4.72;;;1.55;;
37221;SDS011;23119;51.842;-2.230;2023-07-08T01:12:46;6.68;;;2.10;;
37221;SDS011;23119;51.842;-2.230;2023-07-08T01:15:14;3.92;;;2.25;;
37221;SDS011;23119;51.842;-2.230;2023-07-08T01:17:41;7.25;;;2.60;;
37221;SDS011;23119;51.842;-2.230;2023-07-08T01:20:11;4.13;;;2.42;;
37221;SDS011;23119;51.842;-2.230;2023-07-08T01:22:38;5.25;;;1.77;;
37221;SDS011;23119;51.842;-2.230;2023-07-08T01:25:06;6.45;;;2.28;;
37221;SDS011;23119;51.842;-2.230;2023-07-08T01:27:34;4.65;;;1.88;;
37221;SDS011;23119;51.842;-2.230;2023-07-08T01:30:04;6.55;;;2.13;;
37221;SDS011;23119;51.842;-2.230;2023-07-08T01:32:31;8.60;;;2.35;;
37221;SDS011;23119;51.842;-2.230;2023-07-08T01:35:01;5.72;;;2.28;;
37221;SDS011;23119;51.842;-2.230;2023-07-08T01:37:38;4.40;;;2.03;;
37221;SDS011;23119;51.842;-2.230;2023-07-08T01:42:40;4.90;;;2.45;;
37221;SDS011;23119;51.842;-2.230;2023-07-08T01:45:10;4.65;;;2.17;;
37221;SDS011;23119;51.842;-2.230;2023-07-08T01:47:37;4.60;;;2.05;;
37221;SDS011;23119;51.842;-2.230;2023-07-08T01:50:05;5.22;;;1.25;;
37221;SDS011;23119;51.842;-2.230;2023-07-08T01:52:31;3.33;;;1.92;;
37221;SDS011;23119;51.842;-2.230;2023-07-08T01:54:57;6.63;;;2.10;;
37221;SDS011;23119;51.842;-2.230;2023-07-08T01:57:23;4.78;;;1.98;;
37221;SDS011;23119;51.842;-2.230;2023-07-08T01:59:48;4.20;;;1.95;;
37221;SDS011;23119;51.842;-2.230;2023-07-08T02:02:15;3.97;;;1.40;;
37221;SDS011;23119;51.842;-2.230;2023-07-08T02:04:41;6.68;;;1.80;;
37221;SDS011;23119;51.842;-2.230;2023-07-08T02:07:06;5.78;;;2.20;;
37221;SDS011;23119;51.842;-2.230;2023-07-08T02:09:32;4.53;;;1.42;;
37221;SDS011;23119;51.842;-2.230;2023-07-08T02:11:58;3.97;;;1.98;;
37221;SDS011;23119;51.842;-2.230;2023-07-08T02:14:23;6.50;;;2.63;;
37221;SDS011;23119;51.842;-2.230;2023-07-08T02:16:49;3.95;;;1.80;;
37221;SDS011;23119;51.842;-2.230;2023-07-08T02:19:15;4.63;;;1.45;;
37221;SDS011;23119;51.842;-2.230;2023-07-08T02:21:43;5.25;;;2.00;;
37221;SDS011;23119;51.842;-2.230;2023-07-08T02:24:09;5.95;;;1.60;;
37221;SDS011;23119;51.842;-2.230;2023-07-08T02:26:36;9.10;;;1.70;;
37221;SDS011;23119;51.842;-2.230;2023-07-08T02:29:02;4.30;;;1.80;;
37221;SDS011;23119;51.842;-2.230;2023-07-08T02:31:27;5.00;;;2.15;;
37221;SDS011;23119;51.842;-2.230;2023-07-08T02:33:55;5.85;;;1.83;;
37221;SDS011;23119;51.842;-2.230;2023-07-08T02:36:21;4.93;;;2.03;;
37221;SDS011;23119;51.842;-2.230;2023-07-08T02:38:47;7.38;;;2.00;;
37221;SDS011;23119;51.842;-2.230;2023-07-08T02:41:13;3.80;;;1.58;;
37221;SDS011;23119;51.842;-2.230;2023-07-08T02:43:38;4.10;;;1.90;;
37221;SDS011;23119;51.842;-2.230;2023-07-08T02:46:04;6.38;;;2.20;;
37221;SDS011;23119;51.842;-2.230;2023-07-08T02:48:30;5.20;;;1.58;;
37221;SDS011;23119;51.842;-2.230;2023-07-08T02:51:02;3.72;;;1.90;;
37221;SDS011;23119;51.842;-2.230;2023-07-08T02:53:29;4.55;;;1.77;;
37221;SDS011;23119;51.842;-2.230;2023-07-08T02:55:55;5.22;;;2.03;;
37221;SDS011;23119;51.842;-2.230;2023-07-08T02:58:21;4.25;;;1.70;;
37221;SDS011;23119;51.842;-2.230;2023-07-08T03:00:52;5.72;;;1.77;;
37221;SDS011;23119;51.842;-2.230;2023-07-08T03:03:19;5.63;;;2.15;;
37221;SDS011;23119;51.842;-2.230;2023-07-08T03:05:53;4.78;;;1.88;;
37221;SDS011;23119;51.842;-2.230;2023-07-08T03:08:20;5.82;;;1.67;;
37221;SDS011;23119;51.842;-2.230;2023-07-08T03:10:47;5.82;;;2.00;;
37221;SDS011;23119;51.842;-2.230;2023-07-08T03:13:14;6.45;;;2.00;;
37221;SDS011;23119;51.842;-2.230;2023-07-08T03:15:39;5.40;;;1.90;;
37221;SDS011;23119;51.842;-2.230;2023-07-08T03:18:09;6.85;;;2.00;;
37221;SDS011;23119;51.842;-2.230;2023-07-08T03:20:35;3.38;;;1.73;;
37221;SDS011;23119;51.842;-2.230;2023-07-08T03:23:02;4.88;;;2.03;;
37221;SDS011;23119;51.842;-2.230;2023-07-08T03:25:28;3.88;;;1.77;;
37221;SDS011;23119;51.842;-2.230;2023-07-08T03:27:54;3.83;;;1.92;;
37221;SDS011;23119;51.842;-2.230;2023-07-08T03:30:22;3.00;;;1.77;;
37221;SDS011;23119;51.842;-2.230;2023-07-08T03:32:48;4.05;;;2.22;;
37221;SDS011;23119;51.842;-2.230;2023-07-08T03:35:14;3.25;;;1.77;;
37221;SDS011;23119;51.842;-2.230;2023-07-08T03:37:40;4.07;;;2.08;;
37221;SDS011;23119;51.842;-2.230;2023-07-08T03:40:09;8.35;;;2.20;;
37221;SDS011;23119;51.842;-2.230;2023-07-08T03:42:35;3.10;;;1.50;;
37221;SDS011;23119;51.842;-2.230;2023-07-08T03:45:01;4.10;;;1.83;;
37221;SDS011;23119;51.842;-2.230;2023-07-08T03:47:27;6.38;;;1.85;;
37221;SDS011;23119;51.842;-2.230;2023-07-08T03:50:21;10.10;;;2.03;;
37221;SDS011;23119;51.842;-2.230;2023-07-08T03:52:49;5.25;;;2.35;;
37221;SDS011;23119;51.842;-2.230;2023-07-08T03:55:17;4.25;;;2.13;;
37221;SDS011;23119;51.842;-2.230;2023-07-08T03:57:43;4.47;;;1.73;;
37221;SDS011;23119;51.842;-2.230;2023-07-08T04:00:09;5.15;;;1.88;;
37221;SDS011;23119;51.842;-2.230;2023-07-08T04:02:37;5.45;;;1.88;;
37221;SDS011;23119;51.842;-2.230;2023-07-08T04:05:13;5.10;;;1.70;;
37221;SDS011;23119;51.842;-2.230;2023-07-08T04:07:46;6.55;;;2.28;;
37221;SDS011;23119;51.842;-2.230;2023-07-08T04:10:12;4.72;;;1.65;;
37221;SDS011;23119;51.842;-2.230;2023-07-08T04:12:39;5.95;;;2.13;;
37221;SDS011;23119;51.842;-2.230;2023-07-08T04:15:06;4.93;;;2.45;;
37221;SDS011;23119;51.842;-2.230;2023-07-08T04:17:35;5.13;;;2.30;;
37221;SDS011;23119;51.842;-2.230;2023-07-08T04:20:09;5.00;;;1.73;;
37221;SDS011;23119;51.842;-2.230;2023-07-08T04:22:36;5.05;;;2.03;;
37221;SDS011;23119;51.842;-2.230;2023-07-08T04:25:02;2.88;;;1.90;;
37221;SDS011;23119;51.842;-2.230;2023-07-08T04:27:29;6.63;;;2.45;;
37221;SDS011;23119;51.842;-2.230;2023-07-08T04:29:54;7.25;;;2.20;;
37221;SDS011;23119;51.842;-2.230;2023-07-08T04:32:22;7.78;;;1.95;;
37221;SDS011;23119;51.842;-2.230;2023-07-08T04:34:50;5.07;;;1.90;;
37221;SDS011;23119;51.842;-2.230;2023-07-08T04:37:17;4.78;;;1.83;;
37221;SDS011;23119;51.842;-2.230;2023-07-08T04:39:44;5.30;;;1.63;;
37221;SDS011;23119;51.842;-2.230;2023-07-08T04:42:10;11.90;;;2.10;;
37221;SDS011;23119;51.842;-2.230;2023-07-08T04:44:38;4.80;;;2.17;;
37221;SDS011;23119;51.842;-2.230;2023-07-08T04:47:03;4.85;;;1.90;;
37221;SDS011;23119;51.842;-2.230;2023-07-08T04:49:29;6.63;;;2.10;;
37221;SDS011;23119;51.842;-2.230;2023-07-08T04:51:57;3.70;;;1.70;;
37221;SDS011;23119;51.842;-2.230;2023-07-08T04:54:24;5.10;;;2.30;;
37221;SDS011;23119;51.842;-2.230;2023-07-08T04:56:52;5.57;;;1.85;;
37221;SDS011;23119;51.842;-2.230;2023-07-08T04:59:18;3.67;;;1.58;;
37221;SDS011;23119;51.842;-2.230;2023-07-08T05:01:47;6.53;;;2.17;;
37221;SDS011;23119;51.842;-2.230;2023-07-08T05:04:13;4.60;;;2.10;;
37221;SDS011;23119;51.842;-2.230;2023-07-08T05:06:41;4.65;;;1.98;;
37221;SDS011;23119;51.842;-2.230;2023-07-08T05:09:07;9.05;;;2.50;;
37221;SDS011;23119;51.842;-2.230;2023-07-08T05:11:33;5.10;;;1.98;;
37221;SDS011;23119;51.842;-2.230;2023-07-08T05:14:00;4.75;;;2.08;;
37221;SDS011;23119;51.842;-2.230;2023-07-08T05:16:27;4.43;;;2.00;;
37221;SDS011;23119;51.842;-2.230;2023-07-08T05:18:53;3.83;;;2.30;;
37221;SDS011;23119;51.842;-2.230;2023-07-08T05:21:19;5.07;;;2.30;;
37221;SDS011;23119;51.842;-2.230;2023-07-08T05:23:47;6.55;;;2.15;;
37221;SDS011;23119;51.842;-2.230;2023-07-08T05:26:16;3.90;;;2.08;;
37221;SDS011;23119;51.842;-2.230;2023-07-08T05:28:42;6.38;;;2.10;;
37221;SDS011;23119;51.842;-2.230;2023-07-08T05:31:08;7.75;;;2.22;;
37221;SDS011;23119;51.842;-2.230;2023-07-08T05:33:35;3.85;;;2.40;;
37221;SDS011;23119;51.842;-2.230;2023-07-08T05:36:01;4.82;;;2.00;;
37221;SDS011;23119;51.842;-2.230;2023-07-08T05:38:27;3.72;;;2.20;;
37221;SDS011;23119;51.842;-2.230;2023-07-08T05:40:54;7.47;;;2.15;;
37221;SDS011;23119;51.842;-2.230;2023-07-08T05:43:21;5.53;;;1.60;;
37221;SDS011;23119;51.842;-2.230;2023-07-08T05:45:47;6.55;;;2.05;;
37221;SDS011;23119;51.842;-2.230;2023-07-08T05:48:13;5.47;;;2.03;;
37221;SDS011;23119;51.842;-2.230;2023-07-08T05:50:39;6.78;;;2.55;;
37221;SDS011;23119;51.842;-2.230;2023-07-08T05:53:05;5.28;;;2.30;;
37221;SDS011;23119;51.842;-2.230;2023-07-08T05:55:41;6.15;;;2.28;;
37221;SDS011;23119;51.842;-2.230;2023-07-08T05:58:12;3.50;;;1.88;;
37221;SDS011;23119;51.842;-2.230;2023-07-08T06:00:40;4.03;;;2.10;;
37221;SDS011;23119;51.842;-2.230;2023-07-08T06:03:09;3.95;;;2.10;;
37221;SDS011;23119;51.842;-2.230;2023-07-08T06:05:38;5.75;;;1.90;;
37221;SDS011;23119;51.842;-2.230;2023-07-08T06:08:06;4.47;;;1.80;;
37221;SDS011;23119;51.842;-2.230;2023-07-08T06:10:32;4.70;;;2.08;;
37221;SDS011;23119;51.842;-2.230;2023-07-08T06:13:06;3.00;;;1.40;;
37221;SDS011;23119;51.842;-2.230;2023-07-08T06:15:31;6.60;;;2.28;;
37221;SDS011;23119;51.842;-2.230;2023-07-08T06:17:59;5.25;;;2.08;;
37221;SDS011;23119;51.842;-2.230;2023-07-08T06:20:27;4.85;;;1.65;;
37221;SDS011;23119;51.842;-2.230;2023-07-08T06:22:53;4.72;;;2.17;;
37221;SDS011;23119;51.842;-2.230;2023-07-08T06:25:19;5.53;;;1.25;;
37221;SDS011;23119;51.842;-2.230;2023-07-08T06:27:48;4.15;;;1.60;;
37221;SDS011;23119;51.842;-2.230;2023-07-08T06:30:13;4.15;;;1.58;;
37221;SDS011;23119;51.842;-2.230;2023-07-08T06:32:39;4.90;;;1.70;;
37221;SDS011;23119;51.842;-2.230;2023-07-08T06:35:05;7.07;;;1.73;;
37221;SDS011;23119;51.842;-2.230;2023-07-08T06:37:31;3.03;;;1.23;;
37221;SDS011;23119;51.842;-2.230;2023-07-08T06:39:57;2.65;;;1.35;;
37221;SDS011;23119;51.842;-2.230;2023-07-08T06:42:23;5.38;;;1.90;;
37221;SDS011;23119;51.842;-2.230;2023-07-08T06:44:48;6.53;;;1.50;;
37221;SDS011;23119;51.842;-2.230;2023-07-08T06:47:17;5.22;;;1.42;;
37221;SDS011;23119;51.842;-2.230;2023-07-08T06:49:45;3.38;;;1.42;;
37221;SDS011;23119;51.842;-2.230;2023-07-08T06:52:12;2.85;;;1.27;;
37221;SDS011;23119;51.842;-2.230;2023-07-08T06:54:38;4.07;;;1.85;;
37221;SDS011;23119;51.842;-2.230;2023-07-08T06:57:04;3.67;;;1.17;;
37221;SDS011;23119;51.842;-2.230;2023-07-08T06:59:32;2.92;;;1.40;;
37221;SDS011;23119;51.842;-2.230;2023-07-08T07:01:59;5.38;;;1.20;;
37221;SDS011;23119;51.842;-2.230;2023-07-08T07:04:24;4.18;;;1.20;;
37221;SDS011;23119;51.842;-2.230;2023-07-08T07:06:52;2.10;;;1.10;;
37221;SDS011;23119;51.842;-2.230;2023-07-08T07:09:18;2.95;;;1.00;;
37221;SDS011;23119;51.842;-2.230;2023-07-08T07:11:44;3.60;;;1.25;;
37221;SDS011;23119;51.842;-2.230;2023-07-08T07:14:10;3.28;;;1.27;;
37221;SDS011;23119;51.842;-2.230;2023-07-08T07:16:35;3.90;;;1.25;;
37221;SDS011;23119;51.842;-2.230;2023-07-08T07:19:01;3.58;;;1.05;;
37221;SDS011;23119;51.842;-2.230;2023-07-08T07:21:27;2.72;;;0.82;;
37221;SDS011;23119;51.842;-2.230;2023-07-08T07:23:53;2.67;;;0.80;;
37221;SDS011;23119;51.842;-2.230;2023-07-08T07:26:19;2.83;;;1.20;;
37221;SDS011;23119;51.842;-2.230;2023-07-08T07:28:50;4.53;;;1.20;;
37221;SDS011;23119;51.842;-2.230;2023-07-08T07:31:16;5.57;;;1.17;;
37221;SDS011;23119;51.842;-2.230;2023-07-08T07:33:41;4.78;;;1.10;;
37221;SDS011;23119;51.842;-2.230;2023-07-08T07:36:07;3.58;;;1.02;;
37221;SDS011;23119;51.842;-2.230;2023-07-08T07:38:33;4.78;;;1.15;;
37221;SDS011;23119;51.842;-2.230;2023-07-08T07:40:59;1.83;;;0.80;;
37221;SDS011;23119;51.842;-2.230;2023-07-08T07:43:25;5.22;;;1.00;;
37221;SDS011;23119;51.842;-2.230;2023-07-08T07:45:51;3.92;;;1.00;;
37221;SDS011;23119;51.842;-2.230;2023-07-08T07:48:18;2.42;;;0.90;;
37221;SDS011;23119;51.842;-2.230;2023-07-08T07:50:47;3.08;;;1.00;;
37221;SDS011;23119;51.842;-2.230;2023-07-08T07:53:14;4.05;;;1.10;;
37221;SDS011;23119;51.842;-2.230;2023-07-08T07:55:40;2.50;;;0.80;;
37221;SDS011;23119;51.842;-2.230;2023-07-08T07:58:06;4.82;;;1.15;;
37221;SDS011;23119;51.842;-2.230;2023-07-08T08:00:36;5.97;;;1.20;;
37221;SDS011;23119;51.842;-2.230;2023-07-08T08:03:05;5.70;;;1.00;;
37221;SDS011;23119;51.842;-2.230;2023-07-08T08:05:31;4.13;;;0.90;;
37221;SDS011;23119;51.842;-2.230;2023-07-08T08:07:57;3.95;;;0.90;;
37221;SDS011;23119;51.842;-2.230;2023-07-08T08:10:22;4.20;;;1.13;;
37221;SDS011;23119;51.842;-2.230;2023-07-08T08:12:48;6.13;;;1.30;;
37221;SDS011;23119;51.842;-2.230;2023-07-08T08:15:16;4.30;;;1.15;;
37221;SDS011;23119;51.842;-2.230;2023-07-08T08:17:45;4.25;;;1.08;;
37221;SDS011;23119;51.842;-2.230;2023-07-08T08:20:13;4.65;;;1.05;;
37221;SDS011;23119;51.842;-2.230;2023-07-08T08:22:39;5.32;;;0.98;;
37221;SDS011;23119;51.842;-2.230;2023-07-08T08:25:05;5.10;;;1.08;;
37221;SDS011;23119;51.842;-2.230;2023-07-08T08:27:31;4.15;;;1.08;;
37221;SDS011;23119;51.842;-2.230;2023-07-08T08:29:57;6.53;;;1.20;;
37221;SDS011;23119;51.842;-2.230;2023-07-08T08:32:23;4.95;;;1.48;;
37221;SDS011;23119;51.842;-2.230;2023-07-08T08:34:49;5.15;;;1.17;;
37221;SDS011;23119;51.842;-2.230;2023-07-08T08:37:15;6.63;;;1.30;;
37221;SDS011;23119;51.842;-2.230;2023-07-08T08:39:40;7.78;;;1.52;;
37221;SDS011;23119;51.842;-2.230;2023-07-08T08:42:09;4.07;;;1.17;;
37221;SDS011;23119;51.842;-2.230;2023-07-08T08:44:54;4.88;;;1.00;;
37221;SDS011;23119;51.842;-2.230;2023-07-08T08:50:12;5.47;;;0.95;;
37221;SDS011;23119;51.842;-2.230;2023-07-08T08:52:43;4.57;;;1.00;;
37221;SDS011;23119;51.842;-2.230;2023-07-08T08:55:13;5.43;;;1.10;;
37221;SDS011;23119;51.842;-2.230;2023-07-08T08:57:41;4.60;;;0.80;;
37221;SDS011;23119;51.842;-2.230;2023-07-08T09:00:13;3.33;;;1.20;;
37221;SDS011;23119;51.842;-2.230;2023-07-08T09:05:27;5.85;;;1.55;;
37221;SDS011;23119;51.842;-2.230;2023-07-08T09:13:36;7.15;;;1.58;;
37221;SDS011;23119;51.842;-2.230;2023-07-08T09:22:03;7.05;;;1.33;;
37221;SDS011;23119;51.842;-2.230;2023-07-08T09:24:43;5.60;;;1.50;;
37221;SDS011;23119;51.842;-2.230;2023-07-08T09:27:19;4.90;;;1.15;;
37221;SDS011;23119;51.842;-2.230;2023-07-08T09:29:46;4.20;;;1.30;;
37221;SDS011;23119;51.842;-2.230;2023-07-08T09:32:16;5.05;;;1.33;;
37221;SDS011;23119;51.842;-2.230;2023-07-08T09:34:47;8.90;;;2.28;;
37221;SDS011;23119;51.842;-2.230;2023-07-08T09:37:28;5.78;;;1.60;;
37221;SDS011;23119;51.842;-2.230;2023-07-08T09:40:09;5.90;;;1.52;;
37221;SDS011;23119;51.842;-2.230;2023-07-08T09:42:49;5.93;;;1.55;;
37221;SDS011;23119;51.842;-2.230;2023-07-08T09:45:18;5.82;;;1.73;;
37221;SDS011;23119;51.842;-2.230;2023-07-08T09:47:47;5.97;;;1.55;;
37221;SDS011;23119;51.842;-2.230;2023-07-08T09:50:21;6.25;;;1.15;;
37221;SDS011;23119;51.842;-2.230;2023-07-08T09:55:18;8.82;;;2.20;;
37221;SDS011;23119;51.842;-2.230;2023-07-08T09:57:47;5.82;;;1.67;;
37221;SDS011;23119;51.842;-2.230;2023-07-08T10:37:52;2.38;;;0.85;;
37221;SDS011;23119;51.842;-2.230;2023-07-08T10:40:47;4.45;;;1.25;;
37221;SDS011;23119;51.842;-2.230;2023-07-08T10:48:50;6.70;;;1.10;;
37221;SDS011;23119;51.842;-2.230;2023-07-08T10:51:30;5.30;;;1.13;;
37221;SDS011;23119;51.842;-2.230;2023-07-08T10:54:15;3.70;;;1.30;;
37221;SDS011;23119;51.842;-2.230;2023-07-08T11:05:06;4.38;;;1.48;;
37221;SDS011;23119;51.842;-2.230;2023-07-08T11:10:46;3.35;;;1.00;;
37221;SDS011;23119;51.842;-2.230;2023-07-08T11:13:15;6.07;;;1.17;;
37221;SDS011;23119;51.842;-2.230;2023-07-08T11:26:42;3.13;;;0.98;;
37221;SDS011;23119;51.842;-2.230;2023-07-08T11:29:19;4.18;;;1.30;;
37221;SDS011;23119;51.842;-2.230;2023-07-08T11:32:06;7.82;;;1.40;;
37221;SDS011;23119;51.842;-2.230;2023-07-08T11:34:38;5.15;;;1.20;;
37221;SDS011;23119;51.842;-2.230;2023-07-08T11:37:09;5.35;;;1.08;;
37221;SDS011;23119;51.842;-2.230;2023-07-08T11:39:46;5.65;;;1.17;;
37221;SDS011;23119;51.842;-2.230;2023-07-08T11:42:35;6.10;;;1.10;;
37221;SDS011;23119;51.842;-2.230;2023-07-08T11:47:50;3.45;;;1.05;;
37221;SDS011;23119;51.842;-2.230;2023-07-08T11:50:50;4.15;;;0.90;;
37221;SDS011;23119;51.842;-2.230;2023-07-08T11:53:12;4.57;;;1.00;;
37221;SDS011;23119;51.842;-2.230;2023-07-08T11:58:22;6.05;;;1.95;;
37221;SDS011;23119;51.842;-2.230;2023-07-08T12:00:59;6.03;;;1.30;;
37221;SDS011;23119;51.842;-2.230;2023-07-08T12:03:50;3.60;;;1.27;;
37221;SDS011;23119;51.842;-2.230;2023-07-08T12:08:52;5.78;;;1.33;;
37221;SDS011;23119;51.842;-2.230;2023-07-08T12:11:20;4.30;;;1.20;;
37221;SDS011;23119;51.842;-2.230;2023-07-08T12:13:55;5.28;;;1.52;;
37221;SDS011;23119;51.842;-2.230;2023-07-08T12:16:24;5.53;;;1.00;;
37221;SDS011;23119;51.842;-2.230;2023-07-08T12:18:51;2.60;;;1.13;;
37221;SDS011;23119;51.842;-2.230;2023-07-08T12:21:18;5.95;;;1.60;;
37221;SDS011;23119;51.842;-2.230;2023-07-08T12:23:47;4.40;;;1.35;;
37221;SDS011;23119;51.842;-2.230;2023-07-08T12:26:13;6.35;;;1.50;;
37221;SDS011;23119;51.842;-2.230;2023-07-08T12:28:40;4.85;;;1.30;;
37221;SDS011;23119;51.842;-2.230;2023-07-08T12:31:13;4.60;;;0.90;;
37221;SDS011;23119;51.842;-2.230;2023-07-08T12:33:43;7.45;;;1.45;;
37221;SDS011;23119;51.842;-2.230;2023-07-08T12:36:20;4.28;;;1.42;;
37221;SDS011;23119;51.842;-2.230;2023-07-08T12:38:50;5.45;;;1.73;;
37221;SDS011;23119;51.842;-2.230;2023-07-08T12:41:20;3.20;;;1.25;;
37221;SDS011;23119;51.842;-2.230;2023-07-08T12:43:56;4.32;;;1.73;;
37221;SDS011;23119;51.842;-2.230;2023-07-08T12:46:22;6.55;;;1.50;;
37221;SDS011;23119;51.842;-2.230;2023-07-08T12:48:51;5.90;;;1.20;;
37221;SDS011;23119;51.842;-2.230;2023-07-08T12:51:21;4.05;;;1.30;;
37221;SDS011;23119;51.842;-2.230;2023-07-08T12:53:52;5.50;;;1.25;;
37221;SDS011;23119;51.842;-2.230;2023-07-08T12:56:19;6.90;;;1.58;;
37221;SDS011;23119;51.842;-2.230;2023-07-08T12:58:52;5.28;;;1.70;;
37221;SDS011;23119;51.842;-2.230;2023-07-08T13:01:24;3.40;;;1.17;;
37221;SDS011;23119;51.842;-2.230;2023-07-08T13:03:54;3.97;;;1.30;;
37221;SDS011;23119;51.842;-2.230;2023-07-08T13:06:25;4.60;;;1.13;;
37221;SDS011;23119;51.842;-2.230;2023-07-08T13:08:57;4.43;;;1.48;;
37221;SDS011;23119;51.842;-2.230;2023-07-08T13:11:52;6.65;;;1.67;;
37221;SDS011;23119;51.842;-2.230;2023-07-08T13:14:22;6.35;;;1.63;;
37221;SDS011;23119;51.842;-2.230;2023-07-08T13:16:49;7.28;;;1.98;;
37221;SDS011;23119;51.842;-2.230;2023-07-08T13:19:18;7.45;;;1.38;;
37221;SDS011;23119;51.842;-2.230;2023-07-08T13:21:47;12.27;;;1.70;;
37221;SDS011;23119;51.842;-2.230;2023-07-08T13:24:14;6.22;;;1.25;;
37221;SDS011;23119;51.842;-2.230;2023-07-08T13:26:44;4.32;;;1.60;;
37221;SDS011;23119;51.842;-2.230;2023-07-08T13:29:15;6.57;;;1.58;;
37221;SDS011;23119;51.842;-2.230;2023-07-08T13:31:44;9.25;;;1.80;;
37221;SDS011;23119;51.842;-2.230;2023-07-08T13:34:23;8.98;;;1.88;;
37221;SDS011;23119;51.842;-2.230;2023-07-08T13:36:52;5.68;;;1.67;;
37221;SDS011;23119;51.842;-2.230;2023-07-08T13:39:31;7.03;;;1.80;;
37221;SDS011;23119;51.842;-2.230;2023-07-08T13:42:05;5.78;;;1.30;;
37221;SDS011;23119;51.842;-2.230;2023-07-08T13:44:32;7.10;;;1.80;;
37221;SDS011;23119;51.842;-2.230;2023-07-08T13:46:59;5.35;;;1.77;;
37221;SDS011;23119;51.842;-2.230;2023-07-08T13:49:29;6.15;;;1.40;;
37221;SDS011;23119;51.842;-2.230;2023-07-08T13:52:05;3.63;;;1.20;;
37221;SDS011;23119;51.842;-2.230;2023-07-08T13:54:39;7.10;;;1.48;;
37221;SDS011;23119;51.842;-2.230;2023-07-08T13:57:16;7.30;;;1.42;;
37221;SDS011;23119;51.842;-2.230;2023-07-08T13:59:44;4.53;;;1.40;;
37221;SDS011;23119;51.842;-2.230;2023-07-08T14:02:20;4.95;;;1.33;;
37221;SDS011;23119;51.842;-2.230;2023-07-08T14:04:52;6.32;;;1.75;;
37221;SDS011;23119;51.842;-2.230;2023-07-08T14:07:23;5.00;;;1.40;;
37221;SDS011;23119;51.842;-2.230;2023-07-08T14:09:51;4.85;;;1.33;;
37221;SDS011;23119;51.842;-2.230;2023-07-08T14:12:17;6.50;;;1.38;;
37221;SDS011;23119;51.842;-2.230;2023-07-08T14:14:43;6.90;;;1.17;;
37221;SDS011;23119;51.842;-2.230;2023-07-08T14:17:10;3.63;;;1.00;;
37221;SDS011;23119;51.842;-2.230;2023-07-08T14:19:42;5.20;;;1.08;;
37221;SDS011;23119;51.842;-2.230;2023-07-08T14:24:47;5.00;;;1.33;;
37221;SDS011;23119;51.842;-2.230;2023-07-08T14:27:13;4.13;;;1.02;;
37221;SDS011;23119;51.842;-2.230;2023-07-08T14:29:45;4.57;;;1.33;;
37221;SDS011;23119;51.842;-2.230;2023-07-08T14:32:18;4.20;;;1.10;;
37221;SDS011;23119;51.842;-2.230;2023-07-08T14:34:51;5.25;;;1.15;;
37221;SDS011;23119;51.842;-2.230;2023-07-08T14:37:18;6.03;;;1.23;;
37221;SDS011;23119;51.842;-2.230;2023-07-08T14:39:47;7.10;;;1.50;;
37221;SDS011;23119;51.842;-2.230;2023-07-08T14:42:16;3.28;;;0.98;;
37221;SDS011;23119;51.842;-2.230;2023-07-08T14:44:48;5.00;;;1.20;;
37221;SDS011;23119;51.842;-2.230;2023-07-08T14:47:15;7.68;;;1.35;;
37221;SDS011;23119;51.842;-2.230;2023-07-08T14:49:42;6.72;;;1.33;;
37221;SDS011;23119;51.842;-2.230;2023-07-08T14:52:08;5.25;;;1.10;;
37221;SDS011;23119;51.842;-2.230;2023-07-08T14:54:34;4.88;;;0.88;;
37221;SDS011;23119;51.842;-2.230;2023-07-08T14:57:03;4.45;;;0.90;;
37221;SDS011;23119;51.842;-2.230;2023-07-08T14:59:31;2.70;;;0.88;;
37221;SDS011;23119;51.842;-2.230;2023-07-08T15:02:01;6.50;;;1.00;;
37221;SDS011;23119;51.842;-2.230;2023-07-08T15:04:44;6.72;;;1.15;;
37221;SDS011;23119;51.842;-2.230;2023-07-08T15:07:10;4.07;;;1.00;;
37221;SDS011;23119;51.842;-2.230;2023-07-08T15:09:36;5.63;;;1.00;;
37221;SDS011;23119;51.842;-2.230;2023-07-08T15:12:04;4.38;;;1.13;;
37221;SDS011;23119;51.842;-2.230;2023-07-08T15:14:34;3.95;;;0.90;;
37221;SDS011;23119;51.842;-2.230;2023-07-08T15:17:08;6.32;;;1.33;;
37221;SDS011;23119;51.842;-2.230;2023-07-08T15:19:44;2.70;;;1.00;;
37221;SDS011;23119;51.842;-2.230;2023-07-08T15:22:10;6.07;;;1.50;;
37221;SDS011;23119;51.842;-2.230;2023-07-08T15:24:38;3.58;;;1.00;;
37221;SDS011;23119;51.842;-2.230;2023-07-08T15:27:11;5.20;;;1.38;;
37221;SDS011;23119;51.842;-2.230;2023-07-08T15:29:38;4.43;;;1.30;;
37221;SDS011;23119;51.842;-2.230;2023-07-08T15:32:08;4.97;;;1.15;;
37221;SDS011;23119;51.842;-2.230;2023-07-08T15:34:43;4.45;;;1.23;;
37221;SDS011;23119;51.842;-2.230;2023-07-08T15:37:10;4.22;;;1.10;;
37221;SDS011;23119;51.842;-2.230;2023-07-08T15:39:42;5.32;;;1.33;;
37221;SDS011;23119;51.842;-2.230;2023-07-08T15:42:11;7.50;;;1.70;;
37221;SDS011;23119;51.842;-2.230;2023-07-08T15:44:40;6.43;;;1.48;;
37221;SDS011;23119;51.842;-2.230;2023-07-08T15:47:07;5.85;;;1.70;;
37221;SDS011;23119;51.842;-2.230;2023-07-08T15:49:42;6.72;;;1.38;;
37221;SDS011;23119;51.842;-2.230;2023-07-08T15:52:10;6.88;;;1.45;;
37221;SDS011;23119;51.842;-2.230;2023-07-08T15:54:38;6.07;;;1.70;;
37221;SDS011;23119;51.842;-2.230;2023-07-08T15:57:04;4.63;;;1.40;;
37221;SDS011;23119;51.842;-2.230;2023-07-08T15:59:32;6.70;;;1.30;;
37221;SDS011;23119;51.842;-2.230;2023-07-08T16:02:26;11.63;;;1.88;;
37221;SDS011;23119;51.842;-2.230;2023-07-08T16:04:53;6.95;;;1.35;;
37221;SDS011;23119;51.842;-2.230;2023-07-08T16:07:19;6.20;;;1.35;;
37221;SDS011;23119;51.842;-2.230;2023-07-08T16:09:45;5.97;;;1.60;;
37221;SDS011;23119;51.842;-2.230;2023-07-08T16:12:15;3.75;;;0.85;;
37221;SDS011;23119;51.842;-2.230;2023-07-08T16:14:46;4.82;;;1.05;;
37221;SDS011;23119;51.842;-2.230;2023-07-08T16:17:14;5.95;;;1.10;;
37221;SDS011;23119;51.842;-2.230;2023-07-08T16:19:40;5.10;;;1.25;;
37221;SDS011;23119;51.842;-2.230;2023-07-08T16:22:08;4.90;;;1.33;;
37221;SDS011;23119;51.842;-2.230;2023-07-08T16:24:35;4.43;;;1.00;;
37221;SDS011;23119;51.842;-2.230;2023-07-08T16:27:00;6.18;;;1.08;;
37221;SDS011;23119;51.842;-2.230;2023-07-08T16:29:34;5.90;;;1.70;;